sensor_id;sensor_type;location;lat;lon;timestamp;temperature;humidity
3842;DHT22;1936;47.074;15.336;2023-05-10T00:01:37;8.60;88.60
3842;DHT22;1936;47.074;15.336;2023-05-10T00:03:41;8.50;88.30
3842;DHT22;1936;47.074;15.336;2023-05-10T00:05:44;8.40;88.00
3842;DHT22;1936;47.074;15.336;2023-05-10T00:07:49;8.40;87.20
3842;DHT22;1936;47.074;15.336;2023-05-10T00:09:52;8.40;87.30
3842;DHT22;1936;47.074;15.336;2023-05-10T00:11:56;8.40;87.00
3842;DHT22;1936;47.074;15.336;2023-05-10T00:14:00;8.40;86.50
3842;DHT22;1936;47.074;15.336;2023-05-10T00:16:03;8.20;87.60
3842;DHT22;1936;47.074;15.336;2023-05-10T00:18:07;8.10;89.30
3842;DHT22;1936;47.074;15.336;2023-05-10T00:20:11;8.00;89.70
3842;DHT22;1936;47.074;15.336;2023-05-10T00:22:14;8.00;89.50
3842;DHT22;1936;47.074;15.336;2023-05-10T00:24:19;8.00;88.50
3842;DHT22;1936;47.074;15.336;2023-05-10T00:26:22;8.00;88.20
3842;DHT22;1936;47.074;15.336;2023-05-10T00:28:27;8.00;88.40
3842;DHT22;1936;47.074;15.336;2023-05-10T00:30:31;8.00;88.20
3842;DHT22;1936;47.074;15.336;2023-05-10T00:32:34;8.00;88.30
3842;DHT22;1936;47.074;15.336;2023-05-10T00:34:38;8.00;88.00
3842;DHT22;1936;47.074;15.336;2023-05-10T00:36:41;7.90;87.70
3842;DHT22;1936;47.074;15.336;2023-05-10T00:38:44;7.80;88.10
3842;DHT22;1936;47.074;15.336;2023-05-10T00:40:49;7.80;87.90
3842;DHT22;1936;47.074;15.336;2023-05-10T00:42:53;7.90;87.40
3842;DHT22;1936;47.074;15.336;2023-05-10T00:44:56;7.90;87.60
3842;DHT22;1936;47.074;15.336;2023-05-10T00:47:00;7.80;87.90
3842;DHT22;1936;47.074;15.336;2023-05-10T00:49:03;7.70;88.20
3842;DHT22;1936;47.074;15.336;2023-05-10T00:51:06;7.80;87.50
3842;DHT22;1936;47.074;15.336;2023-05-10T00:53:10;7.70;87.70
3842;DHT22;1936;47.074;15.336;2023-05-10T00:55:13;7.60;88.60
3842;DHT22;1936;47.074;15.336;2023-05-10T00:57:18;7.60;88.90
3842;DHT22;1936;47.074;15.336;2023-05-10T00:59:22;7.60;88.40
3842;DHT22;1936;47.074;15.336;2023-05-10T01:01:25;7.60;88.80
3842;DHT22;1936;47.074;15.336;2023-05-10T01:03:29;7.60;88.50
3842;DHT22;1936;47.074;15.336;2023-05-10T01:05:33;7.60;88.60
3842;DHT22;1936;47.074;15.336;2023-05-10T01:07:37;7.50;88.50
3842;DHT22;1936;47.074;15.336;2023-05-10T01:09:40;7.50;89.40
3842;DHT22;1936;47.074;15.336;2023-05-10T01:11:44;7.40;88.80
3842;DHT22;1936;47.074;15.336;2023-05-10T01:13:52;7.40;88.80
3842;DHT22;1936;47.074;15.336;2023-05-10T01:15:57;7.50;88.80
3842;DHT22;1936;47.074;15.336;2023-05-10T01:18:02;7.50;88.20
3842;DHT22;1936;47.074;15.336;2023-05-10T01:20:07;7.50;87.90
3842;DHT22;1936;47.074;15.336;2023-05-10T01:22:26;7.40;87.60
3842;DHT22;1936;47.074;15.336;2023-05-10T01:25:03;7.40;87.30
3842;DHT22;1936;47.074;15.336;2023-05-10T01:27:30;7.30;87.30
3842;DHT22;1936;47.074;15.336;2023-05-10T01:32:24;7.30;88.40
3842;DHT22;1936;47.074;15.336;2023-05-10T01:34:35;7.20;88.70
3842;DHT22;1936;47.074;15.336;2023-05-10T01:36:43;7.30;88.00
3842;DHT22;1936;47.074;15.336;2023-05-10T01:38:51;7.20;88.50
3842;DHT22;1936;47.074;15.336;2023-05-10T01:41:07;7.20;89.30
3842;DHT22;1936;47.074;15.336;2023-05-10T01:43:24;7.10;88.90
3842;DHT22;1936;47.074;15.336;2023-05-10T01:45:33;7.10;88.40
3842;DHT22;1936;47.074;15.336;2023-05-10T01:47:43;7.00;88.40
3842;DHT22;1936;47.074;15.336;2023-05-10T01:49:50;7.10;88.20
3842;DHT22;1936;47.074;15.336;2023-05-10T01:51:54;7.10;87.80
3842;DHT22;1936;47.074;15.336;2023-05-10T01:54:01;7.20;87.40
3842;DHT22;1936;47.074;15.336;2023-05-10T01:56:06;7.30;87.50
3842;DHT22;1936;47.074;15.336;2023-05-10T01:58:13;7.10;89.00
3842;DHT22;1936;47.074;15.336;2023-05-10T02:00:19;7.10;89.00
3842;DHT22;1936;47.074;15.336;2023-05-10T02:02:24;6.90;88.60
3842;DHT22;1936;47.074;15.336;2023-05-10T02:04:30;6.80;90.10
3842;DHT22;1936;47.074;15.336;2023-05-10T02:06:35;6.70;90.50
3842;DHT22;1936;47.074;15.336;2023-05-10T02:08:40;6.80;90.30
3842;DHT22;1936;47.074;15.336;2023-05-10T02:10:45;6.70;90.10
3842;DHT22;1936;47.074;15.336;2023-05-10T02:12:50;6.80;89.90
3842;DHT22;1936;47.074;15.336;2023-05-10T02:14:53;6.80;89.40
3842;DHT22;1936;47.074;15.336;2023-05-10T02:16:58;6.80;89.60
3842;DHT22;1936;47.074;15.336;2023-05-10T02:19:02;6.80;89.60
3842;DHT22;1936;47.074;15.336;2023-05-10T02:21:08;6.70;89.00
3842;DHT22;1936;47.074;15.336;2023-05-10T02:23:12;6.70;90.00
3842;DHT22;1936;47.074;15.336;2023-05-10T02:25:18;6.60;90.40
3842;DHT22;1936;47.074;15.336;2023-05-10T02:27:23;6.70;90.30
3842;DHT22;1936;47.074;15.336;2023-05-10T02:29:28;6.70;89.90
3842;DHT22;1936;47.074;15.336;2023-05-10T02:31:33;6.80;89.00
3842;DHT22;1936;47.074;15.336;2023-05-10T02:33:37;6.80;88.30
3842;DHT22;1936;47.074;15.336;2023-05-10T02:35:41;6.70;88.60
3842;DHT22;1936;47.074;15.336;2023-05-10T02:37:47;6.70;88.50
3842;DHT22;1936;47.074;15.336;2023-05-10T02:39:53;6.60;88.60
3842;DHT22;1936;47.074;15.336;2023-05-10T02:41:58;6.50;89.80
3842;DHT22;1936;47.074;15.336;2023-05-10T02:44:02;6.50;90.00
3842;DHT22;1936;47.074;15.336;2023-05-10T02:46:06;6.40;90.40
3842;DHT22;1936;47.074;15.336;2023-05-10T02:48:10;6.50;90.50
3842;DHT22;1936;47.074;15.336;2023-05-10T02:50:13;6.40;90.10
3842;DHT22;1936;47.074;15.336;2023-05-10T02:52:23;6.50;90.00
3842;DHT22;1936;47.074;15.336;2023-05-10T02:54:33;6.50;90.30
3842;DHT22;1936;47.074;15.336;2023-05-10T02:56:44;6.50;90.10
3842;DHT22;1936;47.074;15.336;2023-05-10T02:58:50;6.50;89.80
3842;DHT22;1936;47.074;15.336;2023-05-10T03:00:53;6.40;89.20
3842;DHT22;1936;47.074;15.336;2023-05-10T03:02:56;6.40;89.50
3842;DHT22;1936;47.074;15.336;2023-05-10T03:05:00;6.50;89.00
3842;DHT22;1936;47.074;15.336;2023-05-10T03:07:04;6.50;88.60
3842;DHT22;1936;47.074;15.336;2023-05-10T03:09:08;6.40;88.90
3842;DHT22;1936;47.074;15.336;2023-05-10T03:11:28;6.40;89.60
3842;DHT22;1936;47.074;15.336;2023-05-10T03:13:42;6.40;89.20
3842;DHT22;1936;47.074;15.336;2023-05-10T03:15:51;6.40;88.30
3842;DHT22;1936;47.074;15.336;2023-05-10T03:18:00;6.40;88.30
3842;DHT22;1936;47.074;15.336;2023-05-10T03:20:08;6.30;88.10
3842;DHT22;1936;47.074;15.336;2023-05-10T03:22:19;6.20;88.30
3842;DHT22;1936;47.074;15.336;2023-05-10T03:24:27;6.20;88.70
3842;DHT22;1936;47.074;15.336;2023-05-10T03:26:33;6.30;89.00
3842;DHT22;1936;47.074;15.336;2023-05-10T03:28:37;6.30;89.10
3842;DHT22;1936;47.074;15.336;2023-05-10T03:30:43;6.20;89.20
3842;DHT22;1936;47.074;15.336;2023-05-10T03:32:47;6.30;89.00
3842;DHT22;1936;47.074;15.336;2023-05-10T03:34:50;6.30;89.70
3842;DHT22;1936;47.074;15.336;2023-05-10T03:36:53;6.30;89.90
3842;DHT22;1936;47.074;15.336;2023-05-10T03:38:57;6.40;89.60
3842;DHT22;1936;47.074;15.336;2023-05-10T03:41:00;6.30;90.00
3842;DHT22;1936;47.074;15.336;2023-05-10T03:43:05;6.40;89.70
3842;DHT22;1936;47.074;15.336;2023-05-10T03:45:09;6.40;89.20
3842;DHT22;1936;47.074;15.336;2023-05-10T03:47:12;6.50;88.90
3842;DHT22;1936;47.074;15.336;2023-05-10T03:49:16;6.50;88.80
3842;DHT22;1936;47.074;15.336;2023-05-10T03:51:19;6.40;89.70
3842;DHT22;1936;47.074;15.336;2023-05-10T03:53:23;6.40;89.70
3842;DHT22;1936;47.074;15.336;2023-05-10T03:55:26;6.40;89.40
3842;DHT22;1936;47.074;15.336;2023-05-10T03:57:30;6.30;89.20
3842;DHT22;1936;47.074;15.336;2023-05-10T03:59:34;6.50;89.10
3842;DHT22;1936;47.074;15.336;2023-05-10T04:01:38;6.40;89.50
3842;DHT22;1936;47.074;15.336;2023-05-10T04:03:41;6.50;89.70
3842;DHT22;1936;47.074;15.336;2023-05-10T04:05:44;6.50;89.70
3842;DHT22;1936;47.074;15.336;2023-05-10T04:07:48;6.50;90.00
3842;DHT22;1936;47.074;15.336;2023-05-10T04:09:53;6.40;90.10
3842;DHT22;1936;47.074;15.336;2023-05-10T04:11:56;6.40;90.50
3842;DHT22;1936;47.074;15.336;2023-05-10T04:14:00;6.50;90.40
3842;DHT22;1936;47.074;15.336;2023-05-10T04:16:05;6.60;89.90
3842;DHT22;1936;47.074;15.336;2023-05-10T04:18:09;6.70;89.80
3842;DHT22;1936;47.074;15.336;2023-05-10T04:20:13;6.70;89.40
3842;DHT22;1936;47.074;15.336;2023-05-10T04:22:16;6.70;89.10
3842;DHT22;1936;47.074;15.336;2023-05-10T04:24:20;6.80;89.30
3842;DHT22;1936;47.074;15.336;2023-05-10T04:26:23;6.60;90.00
3842;DHT22;1936;47.074;15.336;2023-05-10T04:28:27;6.70;90.40
3842;DHT22;1936;47.074;15.336;2023-05-10T04:30:30;6.80;90.50
3842;DHT22;1936;47.074;15.336;2023-05-10T04:32:35;6.90;90.70
3842;DHT22;1936;47.074;15.336;2023-05-10T04:34:39;7.00;91.20
3842;DHT22;1936;47.074;15.336;2023-05-10T04:36:42;7.20;90.80
3842;DHT22;1936;47.074;15.336;2023-05-10T04:38:46;7.50;90.30
3842;DHT22;1936;47.074;15.336;2023-05-10T04:40:49;7.80;90.10
3842;DHT22;1936;47.074;15.336;2023-05-10T04:42:52;7.70;90.50
3842;DHT22;1936;47.074;15.336;2023-05-10T04:44:56;7.90;90.60
3842;DHT22;1936;47.074;15.336;2023-05-10T04:47:00;8.00;90.20
3842;DHT22;1936;47.074;15.336;2023-05-10T04:49:05;8.20;90.20
3842;DHT22;1936;47.074;15.336;2023-05-10T04:51:08;8.40;90.10
3842;DHT22;1936;47.074;15.336;2023-05-10T04:53:12;8.60;90.10
3842;DHT22;1936;47.074;15.336;2023-05-10T04:55:17;8.80;90.10
3842;DHT22;1936;47.074;15.336;2023-05-10T04:57:20;9.00;89.60
3842;DHT22;1936;47.074;15.336;2023-05-10T04:59:23;9.20;89.60
3842;DHT22;1936;47.074;15.336;2023-05-10T05:01:27;9.50;89.10
3842;DHT22;1936;47.074;15.336;2023-05-10T05:03:30;9.70;88.30
3842;DHT22;1936;47.074;15.336;2023-05-10T05:05:36;9.80;87.40
3842;DHT22;1936;47.074;15.336;2023-05-10T05:07:39;10.00;87.30
3842;DHT22;1936;47.074;15.336;2023-05-10T05:09:43;10.20;87.10
3842;DHT22;1936;47.074;15.336;2023-05-10T05:11:46;10.40;86.90
3842;DHT22;1936;47.074;15.336;2023-05-10T05:13:50;10.10;86.40
3842;DHT22;1936;47.074;15.336;2023-05-10T05:15:53;10.00;87.20
3842;DHT22;1936;47.074;15.336;2023-05-10T05:17:57;10.30;88.60
3842;DHT22;1936;47.074;15.336;2023-05-10T05:20:01;10.70;87.80
3842;DHT22;1936;47.074;15.336;2023-05-10T05:22:10;11.20;86.60
3842;DHT22;1936;47.074;15.336;2023-05-10T05:24:13;11.00;83.70
3842;DHT22;1936;47.074;15.336;2023-05-10T05:26:16;11.00;85.30
3842;DHT22;1936;47.074;15.336;2023-05-10T05:28:20;11.20;85.40
3842;DHT22;1936;47.074;15.336;2023-05-10T05:30:23;11.00;83.80
3842;DHT22;1936;47.074;15.336;2023-05-10T05:32:27;11.10;85.10
3842;DHT22;1936;47.074;15.336;2023-05-10T05:34:31;11.40;86.20
3842;DHT22;1936;47.074;15.336;2023-05-10T05:36:36;11.40;84.70
3842;DHT22;1936;47.074;15.336;2023-05-10T05:38:42;11.80;85.30
3842;DHT22;1936;47.074;15.336;2023-05-10T05:40:46;12.30;84.70
3842;DHT22;1936;47.074;15.336;2023-05-10T05:42:49;12.50;83.50
3842;DHT22;1936;47.074;15.336;2023-05-10T05:44:53;12.40;81.00
3842;DHT22;1936;47.074;15.336;2023-05-10T05:46:56;12.90;81.40
3842;DHT22;1936;47.074;15.336;2023-05-10T05:48:59;13.20;80.50
3842;DHT22;1936;47.074;15.336;2023-05-10T05:51:03;13.30;79.60
3842;DHT22;1936;47.074;15.336;2023-05-10T05:53:08;13.20;79.00
3842;DHT22;1936;47.074;15.336;2023-05-10T05:55:13;13.60;80.60
3842;DHT22;1936;47.074;15.336;2023-05-10T05:57:17;13.90;78.00
3842;DHT22;1936;47.074;15.336;2023-05-10T05:59:21;14.20;76.00
3842;DHT22;1936;47.074;15.336;2023-05-10T06:01:24;14.20;75.00
3842;DHT22;1936;47.074;15.336;2023-05-10T06:03:28;14.30;74.60
3842;DHT22;1936;47.074;15.336;2023-05-10T06:05:32;14.60;74.40
3842;DHT22;1936;47.074;15.336;2023-05-10T06:07:35;14.70;73.40
3842;DHT22;1936;47.074;15.336;2023-05-10T06:09:38;14.70;71.80
3842;DHT22;1936;47.074;15.336;2023-05-10T06:11:43;15.10;70.70
3842;DHT22;1936;47.074;15.336;2023-05-10T06:13:46;15.70;72.00
3842;DHT22;1936;47.074;15.336;2023-05-10T06:15:50;16.90;68.70
3842;DHT22;1936;47.074;15.336;2023-05-10T06:17:53;17.20;61.90
3842;DHT22;1936;47.074;15.336;2023-05-10T06:19:56;17.50;63.00
3842;DHT22;1936;47.074;15.336;2023-05-10T06:22:00;17.80;62.70
3842;DHT22;1936;47.074;15.336;2023-05-10T06:24:05;18.10;62.60
3842;DHT22;1936;47.074;15.336;2023-05-10T06:26:09;17.80;59.90
3842;DHT22;1936;47.074;15.336;2023-05-10T06:28:14;17.60;59.70
3842;DHT22;1936;47.074;15.336;2023-05-10T06:30:17;18.10;56.00
3842;DHT22;1936;47.074;15.336;2023-05-10T06:32:20;18.50;55.80
3842;DHT22;1936;47.074;15.336;2023-05-10T06:34:24;18.50;55.60
3842;DHT22;1936;47.074;15.336;2023-05-10T06:36:27;19.00;55.30
3842;DHT22;1936;47.074;15.336;2023-05-10T06:38:31;19.30;52.80
3842;DHT22;1936;47.074;15.336;2023-05-10T06:40:34;19.50;52.20
3842;DHT22;1936;47.074;15.336;2023-05-10T06:42:37;19.70;50.00
3842;DHT22;1936;47.074;15.336;2023-05-10T06:44:42;20.10;49.40
3842;DHT22;1936;47.074;15.336;2023-05-10T06:46:46;19.60;47.00
3842;DHT22;1936;47.074;15.336;2023-05-10T06:48:49;19.00;50.50
3842;DHT22;1936;47.074;15.336;2023-05-10T06:50:52;19.10;50.60
3842;DHT22;1936;47.074;15.336;2023-05-10T06:52:56;19.40;50.00
3842;DHT22;1936;47.074;15.336;2023-05-10T06:54:59;19.10;51.30
3842;DHT22;1936;47.074;15.336;2023-05-10T06:57:03;19.30;53.70
3842;DHT22;1936;47.074;15.336;2023-05-10T06:59:20;19.00;50.40
3842;DHT22;1936;47.074;15.336;2023-05-10T07:01:25;18.30;51.50
3842;DHT22;1936;47.074;15.336;2023-05-10T07:03:29;17.90;53.10
3842;DHT22;1936;47.074;15.336;2023-05-10T07:05:32;17.60;54.50
3842;DHT22;1936;47.074;15.336;2023-05-10T07:07:36;17.80;54.20
3842;DHT22;1936;47.074;15.336;2023-05-10T07:09:39;17.30;57.40
3842;DHT22;1936;47.074;15.336;2023-05-10T07:11:43;17.10;58.20
3842;DHT22;1936;47.074;15.336;2023-05-10T07:13:46;17.30;57.30
3842;DHT22;1936;47.074;15.336;2023-05-10T07:15:49;17.40;60.30
3842;DHT22;1936;47.074;15.336;2023-05-10T07:17:55;17.70;55.10
3842;DHT22;1936;47.074;15.336;2023-05-10T07:19:58;17.70;56.60
3842;DHT22;1936;47.074;15.336;2023-05-10T07:22:02;18.00;54.80
3842;DHT22;1936;47.074;15.336;2023-05-10T07:24:05;18.10;51.70
3842;DHT22;1936;47.074;15.336;2023-05-10T07:26:08;18.10;53.10
3842;DHT22;1936;47.074;15.336;2023-05-10T07:28:12;18.20;55.40
3842;DHT22;1936;47.074;15.336;2023-05-10T07:30:16;18.70;50.90
3842;DHT22;1936;47.074;15.336;2023-05-10T07:32:19;19.50;52.30
3842;DHT22;1936;47.074;15.336;2023-05-10T07:34:24;19.80;49.60
3842;DHT22;1936;47.074;15.336;2023-05-10T07:36:28;19.70;49.50
3842;DHT22;1936;47.074;15.336;2023-05-10T07:38:31;20.10;47.10
3842;DHT22;1936;47.074;15.336;2023-05-10T07:40:34;21.10;46.80
3842;DHT22;1936;47.074;15.336;2023-05-10T07:42:38;21.10;46.50
3842;DHT22;1936;47.074;15.336;2023-05-10T07:44:41;22.30;43.80
3842;DHT22;1936;47.074;15.336;2023-05-10T07:46:45;22.80;42.10
3842;DHT22;1936;47.074;15.336;2023-05-10T07:48:49;23.20;40.40
3842;DHT22;1936;47.074;15.336;2023-05-10T07:50:54;24.70;40.10
3842;DHT22;1936;47.074;15.336;2023-05-10T07:52:58;24.70;40.70
3842;DHT22;1936;47.074;15.336;2023-05-10T07:55:01;25.70;37.80
3842;DHT22;1936;47.074;15.336;2023-05-10T07:57:05;26.30;36.50
3842;DHT22;1936;47.074;15.336;2023-05-10T07:59:08;27.00;35.00
3842;DHT22;1936;47.074;15.336;2023-05-10T08:03:17;27.50;35.20
3842;DHT22;1936;47.074;15.336;2023-05-10T08:05:20;27.40;34.00
3842;DHT22;1936;47.074;15.336;2023-05-10T08:07:25;27.10;31.10
3842;DHT22;1936;47.074;15.336;2023-05-10T08:09:29;26.70;34.60
3842;DHT22;1936;47.074;15.336;2023-05-10T08:11:32;25.90;33.30
3842;DHT22;1936;47.074;15.336;2023-05-10T08:13:36;24.70;34.00
3842;DHT22;1936;47.074;15.336;2023-05-10T08:15:39;25.30;38.90
3842;DHT22;1936;47.074;15.336;2023-05-10T08:17:42;24.60;35.40
3842;DHT22;1936;47.074;15.336;2023-05-10T08:19:46;24.80;35.50
3842;DHT22;1936;47.074;15.336;2023-05-10T08:21:49;24.80;35.60
3842;DHT22;1936;47.074;15.336;2023-05-10T08:23:54;23.70;37.20
3842;DHT22;1936;47.074;15.336;2023-05-10T08:25:57;22.80;37.10
3842;DHT22;1936;47.074;15.336;2023-05-10T08:28:01;22.60;38.50
3842;DHT22;1936;47.074;15.336;2023-05-10T08:30:06;21.90;41.60
3842;DHT22;1936;47.074;15.336;2023-05-10T08:32:10;21.50;40.10
3842;DHT22;1936;47.074;15.336;2023-05-10T08:34:13;21.00;41.30
3842;DHT22;1936;47.074;15.336;2023-05-10T08:36:16;20.40;42.30
3842;DHT22;1936;47.074;15.336;2023-05-10T08:38:23;20.10;42.90
3842;DHT22;1936;47.074;15.336;2023-05-10T08:40:28;19.90;42.20
3842;DHT22;1936;47.074;15.336;2023-05-10T08:42:34;19.60;43.20
3842;DHT22;1936;47.074;15.336;2023-05-10T08:44:40;19.40;43.00
3842;DHT22;1936;47.074;15.336;2023-05-10T08:46:46;19.50;45.00
3842;DHT22;1936;47.074;15.336;2023-05-10T08:48:50;19.00;46.40
3842;DHT22;1936;47.074;15.336;2023-05-10T08:50:54;19.10;45.60
3842;DHT22;1936;47.074;15.336;2023-05-10T08:53:00;19.10;47.20
3842;DHT22;1936;47.074;15.336;2023-05-10T08:55:07;19.30;43.30
3842;DHT22;1936;47.074;15.336;2023-05-10T08:57:12;19.20;44.00
3842;DHT22;1936;47.074;15.336;2023-05-10T08:59:15;19.10;47.70
3842;DHT22;1936;47.074;15.336;2023-05-10T09:01:19;19.40;49.10
3842;DHT22;1936;47.074;15.336;2023-05-10T09:03:23;19.60;45.20
3842;DHT22;1936;47.074;15.336;2023-05-10T09:05:26;19.70;45.60
3842;DHT22;1936;47.074;15.336;2023-05-10T09:07:30;20.00;45.80
3842;DHT22;1936;47.074;15.336;2023-05-10T09:09:36;20.50;44.30
3842;DHT22;1936;47.074;15.336;2023-05-10T09:11:40;20.50;45.00
3842;DHT22;1936;47.074;15.336;2023-05-10T09:13:46;20.20;42.80
3842;DHT22;1936;47.074;15.336;2023-05-10T09:15:51;20.20;44.50
3842;DHT22;1936;47.074;15.336;2023-05-10T09:17:55;20.50;46.30
3842;DHT22;1936;47.074;15.336;2023-05-10T09:20:00;20.80;45.60
3842;DHT22;1936;47.074;15.336;2023-05-10T09:22:03;21.30;44.00
3842;DHT22;1936;47.074;15.336;2023-05-10T09:24:07;21.50;41.80
3842;DHT22;1936;47.074;15.336;2023-05-10T09:26:11;21.70;38.80
3842;DHT22;1936;47.074;15.336;2023-05-10T09:28:14;22.10;45.30
3842;DHT22;1936;47.074;15.336;2023-05-10T09:30:24;22.00;43.00
3842;DHT22;1936;47.074;15.336;2023-05-10T09:32:38;22.20;38.80
3842;DHT22;1936;47.074;15.336;2023-05-10T09:34:42;22.70;39.40
3842;DHT22;1936;47.074;15.336;2023-05-10T09:36:52;22.00;36.40
3842;DHT22;1936;47.074;15.336;2023-05-10T09:38:57;21.70;40.00
3842;DHT22;1936;47.074;15.336;2023-05-10T09:41:01;21.70;39.70
3842;DHT22;1936;47.074;15.336;2023-05-10T09:43:07;21.30;38.10
3842;DHT22;1936;47.074;15.336;2023-05-10T09:45:10;21.50;38.70
3842;DHT22;1936;47.074;15.336;2023-05-10T09:47:18;21.90;38.20
3842;DHT22;1936;47.074;15.336;2023-05-10T09:49:21;22.30;40.90
3842;DHT22;1936;47.074;15.336;2023-05-10T09:51:25;22.90;36.00
3842;DHT22;1936;47.074;15.336;2023-05-10T09:53:30;22.90;35.60
3842;DHT22;1936;47.074;15.336;2023-05-10T09:55:40;22.50;35.70
3842;DHT22;1936;47.074;15.336;2023-05-10T09:57:46;22.50;40.50
3842;DHT22;1936;47.074;15.336;2023-05-10T09:59:50;21.90;38.20
3842;DHT22;1936;47.074;15.336;2023-05-10T10:01:56;22.30;32.60
3842;DHT22;1936;47.074;15.336;2023-05-10T10:04:03;22.10;37.30
3842;DHT22;1936;47.074;15.336;2023-05-10T10:06:07;23.30;36.20
3842;DHT22;1936;47.074;15.336;2023-05-10T10:08:23;23.70;31.10
3842;DHT22;1936;47.074;15.336;2023-05-10T10:10:28;24.30;36.10
3842;DHT22;1936;47.074;15.336;2023-05-10T10:12:31;25.00;32.40
3842;DHT22;1936;47.074;15.336;2023-05-10T10:14:34;25.10;29.20
3842;DHT22;1936;47.074;15.336;2023-05-10T10:16:38;25.70;31.80
3842;DHT22;1936;47.074;15.336;2023-05-10T10:19:02;26.10;30.50
3842;DHT22;1936;47.074;15.336;2023-05-10T10:21:06;25.30;26.50
3842;DHT22;1936;47.074;15.336;2023-05-10T10:23:10;26.00;27.30
3842;DHT22;1936;47.074;15.336;2023-05-10T10:25:16;26.50;27.60
3842;DHT22;1936;47.074;15.336;2023-05-10T10:27:23;27.30;28.70
3842;DHT22;1936;47.074;15.336;2023-05-10T10:29:32;27.80;31.60
3842;DHT22;1936;47.074;15.336;2023-05-10T10:31:41;28.40;27.40
3842;DHT22;1936;47.074;15.336;2023-05-10T10:33:56;26.90;28.10
3842;DHT22;1936;47.074;15.336;2023-05-10T10:36:04;27.20;28.70
3842;DHT22;1936;47.074;15.336;2023-05-10T10:38:08;27.30;25.90
3842;DHT22;1936;47.074;15.336;2023-05-10T10:40:26;26.80;25.40
3842;DHT22;1936;47.074;15.336;2023-05-10T10:42:44;26.80;29.50
3842;DHT22;1936;47.074;15.336;2023-05-10T10:44:48;27.20;28.40
3842;DHT22;1936;47.074;15.336;2023-05-10T10:47:22;27.00;27.60
3842;DHT22;1936;47.074;15.336;2023-05-10T10:49:32;26.90;29.60
3842;DHT22;1936;47.074;15.336;2023-05-10T10:51:38;26.60;29.50
3842;DHT22;1936;47.074;15.336;2023-05-10T10:53:43;25.80;30.00
3842;DHT22;1936;47.074;15.336;2023-05-10T10:55:47;26.10;30.50
3842;DHT22;1936;47.074;15.336;2023-05-10T10:57:52;26.50;32.00
3842;DHT22;1936;47.074;15.336;2023-05-10T11:00:21;25.60;30.20
3842;DHT22;1936;47.074;15.336;2023-05-10T11:02:42;24.70;31.20
3842;DHT22;1936;47.074;15.336;2023-05-10T11:04:47;24.90;32.30
3842;DHT22;1936;47.074;15.336;2023-05-10T11:07:16;24.70;31.80
3842;DHT22;1936;47.074;15.336;2023-05-10T11:09:20;24.70;30.40
3842;DHT22;1936;47.074;15.336;2023-05-10T11:11:27;24.90;34.70
3842;DHT22;1936;47.074;15.336;2023-05-10T11:13:33;25.20;31.40
3842;DHT22;1936;47.074;15.336;2023-05-10T11:15:38;25.30;35.00
3842;DHT22;1936;47.074;15.336;2023-05-10T11:17:42;24.80;31.30
3842;DHT22;1936;47.074;15.336;2023-05-10T11:20:06;24.30;33.60
3842;DHT22;1936;47.074;15.336;2023-05-10T11:22:15;24.90;34.20
3842;DHT22;1936;47.074;15.336;2023-05-10T11:24:22;24.90;33.30
3842;DHT22;1936;47.074;15.336;2023-05-10T11:26:31;24.80;34.40
3842;DHT22;1936;47.074;15.336;2023-05-10T11:28:44;23.90;39.30
3842;DHT22;1936;47.074;15.336;2023-05-10T11:30:51;23.90;33.40
3842;DHT22;1936;47.074;15.336;2023-05-10T11:32:54;24.60;37.60
3842;DHT22;1936;47.074;15.336;2023-05-10T11:34:57;24.80;37.80
3842;DHT22;1936;47.074;15.336;2023-05-10T11:37:02;24.20;37.60
3842;DHT22;1936;47.074;15.336;2023-05-10T11:39:06;24.70;36.50
3842;DHT22;1936;47.074;15.336;2023-05-10T11:41:10;25.30;36.60
3842;DHT22;1936;47.074;15.336;2023-05-10T11:43:14;24.60;34.00
3842;DHT22;1936;47.074;15.336;2023-05-10T11:45:17;24.20;37.90
3842;DHT22;1936;47.074;15.336;2023-05-10T11:47:21;24.20;39.50
3842;DHT22;1936;47.074;15.336;2023-05-10T11:49:26;24.00;42.10
3842;DHT22;1936;47.074;15.336;2023-05-10T11:51:32;25.50;39.40
3842;DHT22;1936;47.074;15.336;2023-05-10T11:53:36;25.90;35.50
3842;DHT22;1936;47.074;15.336;2023-05-10T11:55:41;27.10;35.90
3842;DHT22;1936;47.074;15.336;2023-05-10T11:57:44;27.90;28.50
3842;DHT22;1936;47.074;15.336;2023-05-10T11:59:53;27.80;31.00
3842;DHT22;1936;47.074;15.336;2023-05-10T12:01:56;27.20;30.10
3842;DHT22;1936;47.074;15.336;2023-05-10T12:04:00;26.40;32.40
3842;DHT22;1936;47.074;15.336;2023-05-10T12:06:05;25.60;32.10
3842;DHT22;1936;47.074;15.336;2023-05-10T12:08:13;24.40;38.50
3842;DHT22;1936;47.074;15.336;2023-05-10T12:10:25;24.70;35.10
3842;DHT22;1936;47.074;15.336;2023-05-10T12:12:37;23.80;33.90
3842;DHT22;1936;47.074;15.336;2023-05-10T12:14:40;23.40;36.70
3842;DHT22;1936;47.074;15.336;2023-05-10T12:16:43;23.00;36.10
3842;DHT22;1936;47.074;15.336;2023-05-10T12:18:48;22.90;37.20
3842;DHT22;1936;47.074;15.336;2023-05-10T12:20:53;22.60;40.10
3842;DHT22;1936;47.074;15.336;2023-05-10T12:22:58;22.20;38.80
3842;DHT22;1936;47.074;15.336;2023-05-10T12:25:04;22.40;42.20
3842;DHT22;1936;47.074;15.336;2023-05-10T12:27:08;22.00;40.70
3842;DHT22;1936;47.074;15.336;2023-05-10T12:29:14;21.50;41.80
3842;DHT22;1936;47.074;15.336;2023-05-10T12:31:18;21.40;40.60
3842;DHT22;1936;47.074;15.336;2023-05-10T12:33:22;20.70;43.40
3842;DHT22;1936;47.074;15.336;2023-05-10T12:35:26;20.70;44.10
3842;DHT22;1936;47.074;15.336;2023-05-10T12:37:29;20.60;44.00
3842;DHT22;1936;47.074;15.336;2023-05-10T12:39:39;20.40;45.90
3842;DHT22;1936;47.074;15.336;2023-05-10T12:41:43;20.60;47.00
3842;DHT22;1936;47.074;15.336;2023-05-10T12:43:47;20.40;44.70
3842;DHT22;1936;47.074;15.336;2023-05-10T12:45:52;20.50;45.00
3842;DHT22;1936;47.074;15.336;2023-05-10T12:47:55;20.50;45.90
3842;DHT22;1936;47.074;15.336;2023-05-10T12:49:59;20.00;44.60
3842;DHT22;1936;47.074;15.336;2023-05-10T12:52:03;20.40;45.50
3842;DHT22;1936;47.074;15.336;2023-05-10T12:54:06;20.20;46.70
3842;DHT22;1936;47.074;15.336;2023-05-10T12:56:10;20.10;45.30
3842;DHT22;1936;47.074;15.336;2023-05-10T12:58:14;20.20;46.40
3842;DHT22;1936;47.074;15.336;2023-05-10T13:00:36;20.30;45.20
3842;DHT22;1936;47.074;15.336;2023-05-10T13:02:41;19.90;45.70
3842;DHT22;1936;47.074;15.336;2023-05-10T13:04:44;19.70;46.70
3842;DHT22;1936;47.074;15.336;2023-05-10T13:06:51;19.40;46.50
3842;DHT22;1936;47.074;15.336;2023-05-10T13:08:54;19.60;45.70
3842;DHT22;1936;47.074;15.336;2023-05-10T13:10:59;19.70;45.10
3842;DHT22;1936;47.074;15.336;2023-05-10T13:13:03;19.70;46.80
3842;DHT22;1936;47.074;15.336;2023-05-10T13:15:08;19.60;49.00
3842;DHT22;1936;47.074;15.336;2023-05-10T13:17:11;19.70;47.20
3842;DHT22;1936;47.074;15.336;2023-05-10T13:19:16;19.90;47.60
3842;DHT22;1936;47.074;15.336;2023-05-10T13:21:20;19.40;45.10
3842;DHT22;1936;47.074;15.336;2023-05-10T13:23:24;19.30;46.90
3842;DHT22;1936;47.074;15.336;2023-05-10T13:25:27;19.10;48.00
3842;DHT22;1936;47.074;15.336;2023-05-10T13:27:30;18.80;46.90
3842;DHT22;1936;47.074;15.336;2023-05-10T13:29:34;18.80;47.20
3842;DHT22;1936;47.074;15.336;2023-05-10T13:31:37;18.70;47.50
3842;DHT22;1936;47.074;15.336;2023-05-10T13:33:41;18.90;50.70
3842;DHT22;1936;47.074;15.336;2023-05-10T13:35:45;19.00;49.10